sensor_id;sensor_type;location;lat;lon;timestamp;temperature;humidity
44170;DHT22;29836;52.286;9.576;2023-01-05T00:01:51;8.90;99.90
44170;DHT22;29836;52.286;9.576;2023-01-05T00:04:17;8.90;99.90
44170;DHT22;29836;52.286;9.576;2023-01-05T00:06:43;9.00;99.90
44170;DHT22;29836;52.286;9.576;2023-01-05T00:09:12;9.00;99.90
44170;DHT22;29836;52.286;9.576;2023-01-05T00:11:37;9.00;99.90
44170;DHT22;29836;52.286;9.576;2023-01-05T00:14:25;9.10;99.90
44170;DHT22;29836;52.286;9.576;2023-01-05T00:17:11;9.10;99.90
44170;DHT22;29836;52.286;9.576;2023-01-05T00:19:55;9.10;99.90
44170;DHT22;29836;52.286;9.576;2023-01-05T00:22:47;9.10;99.90
44170;DHT22;29836;52.286;9.576;2023-01-05T00:27:41;9.00;99.90
44170;DHT22;29836;52.286;9.576;2023-01-05T00:30:09;9.00;99.90
44170;DHT22;29836;52.286;9.576;2023-01-05T00:32:35;9.00;99.90
44170;DHT22;29836;52.286;9.576;2023-01-05T00:35:00;9.00;99.90
44170;DHT22;29836;52.286;9.576;2023-01-05T00:37:30;9.00;99.90
44170;DHT22;29836;52.286;9.576;2023-01-05T00:39:56;9.00;99.90
44170;DHT22;29836;52.286;9.576;2023-01-05T00:42:22;9.00;99.90
44170;DHT22;29836;52.286;9.576;2023-01-05T00:44:47;9.00;99.90
44170;DHT22;29836;52.286;9.576;2023-01-05T00:47:13;8.90;99.90
44170;DHT22;29836;52.286;9.576;2023-01-05T00:49:39;8.90;99.90
44170;DHT22;29836;52.286;9.576;2023-01-05T00:52:04;8.90;99.90
44170;DHT22;29836;52.286;9.576;2023-01-05T00:54:30;8.90;99.90
44170;DHT22;29836;52.286;9.576;2023-01-05T00:56:55;8.90;99.90
44170;DHT22;29836;52.286;9.576;2023-01-05T00:59:21;8.90;99.90
44170;DHT22;29836;52.286;9.576;2023-01-05T01:01:48;8.90;99.90
44170;DHT22;29836;52.286;9.576;2023-01-05T01:04:14;8.90;99.90
44170;DHT22;29836;52.286;9.576;2023-01-05T01:06:39;8.90;99.90
44170;DHT22;29836;52.286;9.576;2023-01-05T01:09:05;9.00;99.90
44170;DHT22;29836;52.286;9.576;2023-01-05T01:11:31;9.00;99.90
44170;DHT22;29836;52.286;9.576;2023-01-05T01:13:56;8.90;99.90
44170;DHT22;29836;52.286;9.576;2023-01-05T01:16:22;9.00;99.90
44170;DHT22;29836;52.286;9.576;2023-01-05T01:18:48;9.10;99.90
44170;DHT22;29836;52.286;9.576;2023-01-05T01:21:13;9.10;99.90
44170;DHT22;29836;52.286;9.576;2023-01-05T01:23:39;9.10;99.90
44170;DHT22;29836;52.286;9.576;2023-01-05T01:26:06;9.20;99.90
44170;DHT22;29836;52.286;9.576;2023-01-05T01:28:32;9.20;99.90
44170;DHT22;29836;52.286;9.576;2023-01-05T01:30:57;9.20;99.90
44170;DHT22;29836;52.286;9.576;2023-01-05T01:33:23;9.10;99.90
44170;DHT22;29836;52.286;9.576;2023-01-05T01:35:48;9.10;99.90
44170;DHT22;29836;52.286;9.576;2023-01-05T01:38:14;9.10;99.90
44170;DHT22;29836;52.286;9.576;2023-01-05T01:40:41;9.10;99.90
44170;DHT22;29836;52.286;9.576;2023-01-05T01:43:19;9.10;99.90
44170;DHT22;29836;52.286;9.576;2023-01-05T01:45:45;9.00;99.90
44170;DHT22;29836;52.286;9.576;2023-01-05T01:48:15;9.10;99.90
44170;DHT22;29836;52.286;9.576;2023-01-05T01:50:52;9.10;99.90
44170;DHT22;29836;52.286;9.576;2023-01-05T01:55:50;9.00;99.90
44170;DHT22;29836;52.286;9.576;2023-01-05T01:58:18;9.00;99.90
44170;DHT22;29836;52.286;9.576;2023-01-05T02:00:44;9.00;99.90
44170;DHT22;29836;52.286;9.576;2023-01-05T02:03:10;9.00;99.90
44170;DHT22;29836;52.286;9.576;2023-01-05T02:05:36;9.00;99.90
44170;DHT22;29836;52.286;9.576;2023-01-05T02:08:03;8.90;99.90
44170;DHT22;29836;52.286;9.576;2023-01-05T02:10:48;8.80;99.90
44170;DHT22;29836;52.286;9.576;2023-01-05T02:13:39;8.80;99.90
44170;DHT22;29836;52.286;9.576;2023-01-05T02:32:49;8.90;99.90
44170;DHT22;29836;52.286;9.576;2023-01-05T02:35:26;8.90;99.90
44170;DHT22;29836;52.286;9.576;2023-01-05T02:38:12;9.00;99.90
44170;DHT22;29836;52.286;9.576;2023-01-05T02:40:43;9.00;99.90
44170;DHT22;29836;52.286;9.576;2023-01-05T02:43:13;9.10;99.90
44170;DHT22;29836;52.286;9.576;2023-01-05T02:45:38;9.10;99.90
44170;DHT22;29836;52.286;9.576;2023-01-05T02:48:04;9.00;99.90
44170;DHT22;29836;52.286;9.576;2023-01-05T02:50:59;9.10;99.90
44170;DHT22;29836;52.286;9.576;2023-01-05T02:53:30;9.20;99.90
44170;DHT22;29836;52.286;9.576;2023-01-05T02:56:09;9.00;99.90
44170;DHT22;29836;52.286;9.576;2023-01-05T02:58:57;9.10;99.90
44170;DHT22;29836;52.286;9.576;2023-01-05T03:01:33;9.00;99.90
44170;DHT22;29836;52.286;9.576;2023-01-05T03:04:12;9.00;99.90
44170;DHT22;29836;52.286;9.576;2023-01-05T03:06:46;9.00;99.90
44170;DHT22;29836;52.286;9.576;2023-01-05T03:09:16;9.00;99.90
44170;DHT22;29836;52.286;9.576;2023-01-05T03:11:49;8.90;99.90
44170;DHT22;29836;52.286;9.576;2023-01-05T03:14:43;8.90;99.90
44170;DHT22;29836;52.286;9.576;2023-01-05T03:17:12;8.80;99.90
44170;DHT22;29836;52.286;9.576;2023-01-05T03:19:40;8.80;99.90
44170;DHT22;29836;52.286;9.576;2023-01-05T03:22:20;8.80;99.90
44170;DHT22;29836;52.286;9.576;2023-01-05T03:25:08;8.80;99.90
44170;DHT22;29836;52.286;9.576;2023-01-05T03:27:53;8.80;99.90
44170;DHT22;29836;52.286;9.576;2023-01-05T03:30:58;8.80;99.90
44170;DHT22;29836;52.286;9.576;2023-01-05T03:33:54;8.80;99.90
44170;DHT22;29836;52.286;9.576;2023-01-05T03:36:52;8.80;99.90
44170;DHT22;29836;52.286;9.576;2023-01-05T03:39:19;8.80;99.90
44170;DHT22;29836;52.286;9.576;2023-01-05T03:41:51;8.80;99.90
44170;DHT22;29836;52.286;9.576;2023-01-05T03:44:17;8.90;99.90
44170;DHT22;29836;52.286;9.576;2023-01-05T03:46:43;8.90;99.90
44170;DHT22;29836;52.286;9.576;2023-01-05T03:49:08;8.90;99.90
44170;DHT22;29836;52.286;9.576;2023-01-05T03:51:34;8.90;99.90
44170;DHT22;29836;52.286;9.576;2023-01-05T03:53:59;9.00;99.90
44170;DHT22;29836;52.286;9.576;2023-01-05T03:56:25;8.90;99.90
44170;DHT22;29836;52.286;9.576;2023-01-05T03:58:50;8.90;99.90
44170;DHT22;29836;52.286;9.576;2023-01-05T04:01:16;8.90;99.90
44170;DHT22;29836;52.286;9.576;2023-01-05T04:03:41;8.90;99.90
44170;DHT22;29836;52.286;9.576;2023-01-05T04:06:06;8.90;99.90
44170;DHT22;29836;52.286;9.576;2023-01-05T04:08:32;8.90;99.90
44170;DHT22;29836;52.286;9.576;2023-01-05T04:11:13;8.90;99.90
44170;DHT22;29836;52.286;9.576;2023-01-05T04:13:39;8.90;99.90
44170;DHT22;29836;52.286;9.576;2023-01-05T04:16:04;8.90;99.90
44170;DHT22;29836;52.286;9.576;2023-01-05T04:18:30;8.90;99.90
44170;DHT22;29836;52.286;9.576;2023-01-05T04:20:55;8.80;99.90
44170;DHT22;29836;52.286;9.576;2023-01-05T04:23:21;8.80;99.90
44170;DHT22;29836;52.286;9.576;2023-01-05T04:25:46;8.70;99.90
44170;DHT22;29836;52.286;9.576;2023-01-05T04:28:12;8.70;99.90
44170;DHT22;29836;52.286;9.576;2023-01-05T04:30:37;8.70;99.90
44170;DHT22;29836;52.286;9.576;2023-01-05T04:33:03;8.70;99.90
44170;DHT22;29836;52.286;9.576;2023-01-05T04:35:28;8.70;99.90
44170;DHT22;29836;52.286;9.576;2023-01-05T04:37:54;8.70;99.90
44170;DHT22;29836;52.286;9.576;2023-01-05T04:40:19;8.60;99.90
44170;DHT22;29836;52.286;9.576;2023-01-05T04:42:46;8.70;99.90
44170;DHT22;29836;52.286;9.576;2023-01-05T04:45:12;8.70;99.90
44170;DHT22;29836;52.286;9.576;2023-01-05T04:47:37;8.70;99.90
44170;DHT22;29836;52.286;9.576;2023-01-05T04:50:03;8.70;99.90
44170;DHT22;29836;52.286;9.576;2023-01-05T04:52:28;8.70;99.90
44170;DHT22;29836;52.286;9.576;2023-01-05T04:54:54;8.60;99.90
44170;DHT22;29836;52.286;9.576;2023-01-05T04:57:19;8.60;99.90
44170;DHT22;29836;52.286;9.576;2023-01-05T04:59:45;8.60;99.90
44170;DHT22;29836;52.286;9.576;2023-01-05T05:02:11;8.60;99.90
44170;DHT22;29836;52.286;9.576;2023-01-05T05:04:36;8.60;99.90
44170;DHT22;29836;52.286;9.576;2023-01-05T05:07:02;8.60;99.90
44170;DHT22;29836;52.286;9.576;2023-01-05T05:09:27;8.60;99.90
44170;DHT22;29836;52.286;9.576;2023-01-05T05:11:53;8.60;99.90
44170;DHT22;29836;52.286;9.576;2023-01-05T05:14:18;8.60;99.90
44170;DHT22;29836;52.286;9.576;2023-01-05T05:16:44;8.60;99.90
44170;DHT22;29836;52.286;9.576;2023-01-05T05:19:09;8.60;99.90
44170;DHT22;29836;52.286;9.576;2023-01-05T05:21:35;8.50;99.90
44170;DHT22;29836;52.286;9.576;2023-01-05T05:24:00;8.50;99.90
44170;DHT22;29836;52.286;9.576;2023-01-05T05:26:26;8.50;99.90
44170;DHT22;29836;52.286;9.576;2023-01-05T05:28:51;8.50;99.90
44170;DHT22;29836;52.286;9.576;2023-01-05T05:31:17;8.60;99.90
44170;DHT22;29836;52.286;9.576;2023-01-05T05:33:42;8.60;99.90
44170;DHT22;29836;52.286;9.576;2023-01-05T05:36:08;8.60;99.90
44170;DHT22;29836;52.286;9.576;2023-01-05T05:38:33;8.60;99.90
44170;DHT22;29836;52.286;9.576;2023-01-05T05:40:59;8.60;99.90
44170;DHT22;29836;52.286;9.576;2023-01-05T05:43:24;8.50;99.90
44170;DHT22;29836;52.286;9.576;2023-01-05T05:45:50;8.50;99.90
44170;DHT22;29836;52.286;9.576;2023-01-05T05:48:15;8.50;99.90
44170;DHT22;29836;52.286;9.576;2023-01-05T05:50:41;8.50;99.90
44170;DHT22;29836;52.286;9.576;2023-01-05T05:53:08;8.50;99.90
44170;DHT22;29836;52.286;9.576;2023-01-05T05:55:33;8.50;99.90
44170;DHT22;29836;52.286;9.576;2023-01-05T05:57:59;8.50;99.90
44170;DHT22;29836;52.286;9.576;2023-01-05T06:00:24;8.60;99.90
44170;DHT22;29836;52.286;9.576;2023-01-05T06:02:50;8.60;99.90
44170;DHT22;29836;52.286;9.576;2023-01-05T06:05:16;8.60;99.90
44170;DHT22;29836;52.286;9.576;2023-01-05T06:07:41;8.60;99.90
44170;DHT22;29836;52.286;9.576;2023-01-05T06:10:07;8.60;99.90
44170;DHT22;29836;52.286;9.576;2023-01-05T06:12:32;8.60;99.90
44170;DHT22;29836;52.286;9.576;2023-01-05T06:14:58;8.60;99.90
44170;DHT22;29836;52.286;9.576;2023-01-05T06:17:24;8.60;99.90
44170;DHT22;29836;52.286;9.576;2023-01-05T06:19:49;8.60;99.90
44170;DHT22;29836;52.286;9.576;2023-01-05T06:22:14;8.60;99.90
44170;DHT22;29836;52.286;9.576;2023-01-05T06:24:40;8.70;99.90
44170;DHT22;29836;52.286;9.576;2023-01-05T06:27:05;8.70;99.90
44170;DHT22;29836;52.286;9.576;2023-01-05T06:29:31;8.70;99.90
44170;DHT22;29836;52.286;9.576;2023-01-05T06:31:56;8.70;99.90
44170;DHT22;29836;52.286;9.576;2023-01-05T06:34:22;8.70;99.90
44170;DHT22;29836;52.286;9.576;2023-01-05T06:36:47;8.70;99.90
44170;DHT22;29836;52.286;9.576;2023-01-05T06:39:13;8.70;99.90
44170;DHT22;29836;52.286;9.576;2023-01-05T06:41:38;8.70;99.90
44170;DHT22;29836;52.286;9.576;2023-01-05T06:44:04;8.60;99.90
44170;DHT22;29836;52.286;9.576;2023-01-05T06:46:30;8.60;99.90
44170;DHT22;29836;52.286;9.576;2023-01-05T06:48:55;8.60;99.90
44170;DHT22;29836;52.286;9.576;2023-01-05T06:51:21;8.50;99.90
44170;DHT22;29836;52.286;9.576;2023-01-05T06:53:53;8.50;99.90
44170;DHT22;29836;52.286;9.576;2023-01-05T06:56:19;8.40;99.90
44170;DHT22;29836;52.286;9.576;2023-01-05T06:58:44;8.40;99.90
44170;DHT22;29836;52.286;9.576;2023-01-05T07:01:10;8.50;99.90
44170;DHT22;29836;52.286;9.576;2023-01-05T07:03:35;8.50;99.90
44170;DHT22;29836;52.286;9.576;2023-01-05T07:06:01;8.50;99.90
44170;DHT22;29836;52.286;9.576;2023-01-05T07:08:28;8.40;99.90
44170;DHT22;29836;52.286;9.576;2023-01-05T07:10:54;8.40;99.90
44170;DHT22;29836;52.286;9.576;2023-01-05T07:13:19;8.40;99.90
44170;DHT22;29836;52.286;9.576;2023-01-05T07:15:45;8.40;99.90
44170;DHT22;29836;52.286;9.576;2023-01-05T07:18:11;8.40;99.90
44170;DHT22;29836;52.286;9.576;2023-01-05T07:20:36;8.30;99.90
44170;DHT22;29836;52.286;9.576;2023-01-05T07:23:02;8.40;99.90
44170;DHT22;29836;52.286;9.576;2023-01-05T07:25:28;8.40;99.90
44170;DHT22;29836;52.286;9.576;2023-01-05T07:27:56;8.40;99.90
44170;DHT22;29836;52.286;9.576;2023-01-05T07:30:22;8.40;99.90
44170;DHT22;29836;52.286;9.576;2023-01-05T07:32:48;8.40;99.90
44170;DHT22;29836;52.286;9.576;2023-01-05T07:35:14;8.50;99.90
44170;DHT22;29836;52.286;9.576;2023-01-05T07:37:39;8.50;99.90
44170;DHT22;29836;52.286;9.576;2023-01-05T07:40:05;8.50;99.90
44170;DHT22;29836;52.286;9.576;2023-01-05T07:42:32;8.60;99.90
44170;DHT22;29836;52.286;9.576;2023-01-05T07:44:57;8.50;99.90
44170;DHT22;29836;52.286;9.576;2023-01-05T07:47:23;8.60;99.90
44170;DHT22;29836;52.286;9.576;2023-01-05T07:49:48;8.60;99.90
44170;DHT22;29836;52.286;9.576;2023-01-05T07:52:14;8.60;99.90
44170;DHT22;29836;52.286;9.576;2023-01-05T07:54:39;8.70;99.90
44170;DHT22;29836;52.286;9.576;2023-01-05T07:57:05;8.70;99.90
44170;DHT22;29836;52.286;9.576;2023-01-05T07:59:30;8.70;99.90
44170;DHT22;29836;52.286;9.576;2023-01-05T08:01:56;8.70;99.90
44170;DHT22;29836;52.286;9.576;2023-01-05T08:04:22;8.60;99.90
44170;DHT22;29836;52.286;9.576;2023-01-05T08:06:48;8.60;99.90
44170;DHT22;29836;52.286;9.576;2023-01-05T08:09:14;8.60;99.90
44170;DHT22;29836;52.286;9.576;2023-01-05T08:11:58;8.60;99.90
44170;DHT22;29836;52.286;9.576;2023-01-05T08:14:24;8.70;99.90
44170;DHT22;29836;52.286;9.576;2023-01-05T08:16:49;8.80;99.90
44170;DHT22;29836;52.286;9.576;2023-01-05T08:19:15;8.90;99.90
44170;DHT22;29836;52.286;9.576;2023-01-05T08:21:40;8.90;99.90
44170;DHT22;29836;52.286;9.576;2023-01-05T08:24:06;8.90;99.90
44170;DHT22;29836;52.286;9.576;2023-01-05T08:26:32;8.90;99.90
44170;DHT22;29836;52.286;9.576;2023-01-05T08:28:58;8.90;99.90
44170;DHT22;29836;52.286;9.576;2023-01-05T08:31:28;8.90;99.90
44170;DHT22;29836;52.286;9.576;2023-01-05T08:33:57;8.90;99.90
44170;DHT22;29836;52.286;9.576;2023-01-05T08:36:24;8.80;99.90
44170;DHT22;29836;52.286;9.576;2023-01-05T08:38:52;8.90;99.90
44170;DHT22;29836;52.286;9.576;2023-01-05T08:41:20;8.90;99.90
44170;DHT22;29836;52.286;9.576;2023-01-05T08:43:50;9.00;99.90
44170;DHT22;29836;52.286;9.576;2023-01-05T08:46:18;9.10;99.90
44170;DHT22;29836;52.286;9.576;2023-01-05T08:48:53;9.30;99.90
44170;DHT22;29836;52.286;9.576;2023-01-05T08:51:19;9.60;99.90
44170;DHT22;29836;52.286;9.576;2023-01-05T08:53:45;9.80;99.90
44170;DHT22;29836;52.286;9.576;2023-01-05T08:56:11;10.20;99.90
44170;DHT22;29836;52.286;9.576;2023-01-05T08:58:38;10.30;99.90
44170;DHT22;29836;52.286;9.576;2023-01-05T09:01:07;10.90;99.90
44170;DHT22;29836;52.286;9.576;2023-01-05T09:03:33;11.50;99.90
44170;DHT22;29836;52.286;9.576;2023-01-05T09:05:59;11.70;99.90
44170;DHT22;29836;52.286;9.576;2023-01-05T09:08:28;11.80;99.90
44170;DHT22;29836;52.286;9.576;2023-01-05T09:10:54;11.50;99.90
44170;DHT22;29836;52.286;9.576;2023-01-05T09:13:19;12.10;99.90
44170;DHT22;29836;52.286;9.576;2023-01-05T09:15:45;11.90;99.90
44170;DHT22;29836;52.286;9.576;2023-01-05T09:18:10;11.20;99.90
44170;DHT22;29836;52.286;9.576;2023-01-05T09:20:36;10.60;99.90
44170;DHT22;29836;52.286;9.576;2023-01-05T09:23:01;9.90;99.90
44170;DHT22;29836;52.286;9.576;2023-01-05T09:25:27;9.50;99.90
44170;DHT22;29836;52.286;9.576;2023-01-05T09:27:53;9.20;99.90
44170;DHT22;29836;52.286;9.576;2023-01-05T09:30:18;9.00;99.90
44170;DHT22;29836;52.286;9.576;2023-01-05T09:32:44;8.90;99.90
44170;DHT22;29836;52.286;9.576;2023-01-05T09:35:09;8.80;99.90
44170;DHT22;29836;52.286;9.576;2023-01-05T09:37:35;8.80;99.90
44170;DHT22;29836;52.286;9.576;2023-01-05T09:40:00;8.80;99.90
44170;DHT22;29836;52.286;9.576;2023-01-05T09:42:26;8.80;99.90
44170;DHT22;29836;52.286;9.576;2023-01-05T09:45:02;8.80;99.90
44170;DHT22;29836;52.286;9.576;2023-01-05T09:47:35;8.80;99.90
44170;DHT22;29836;52.286;9.576;2023-01-05T09:50:03;8.80;99.90
44170;DHT22;29836;52.286;9.576;2023-01-05T09:52:29;8.80;99.90
44170;DHT22;29836;52.286;9.576;2023-01-05T09:54:55;8.80;99.90
44170;DHT22;29836;52.286;9.576;2023-01-05T09:57:24;8.80;99.90
44170;DHT22;29836;52.286;9.576;2023-01-05T09:59:53;8.80;99.90
44170;DHT22;29836;52.286;9.576;2023-01-05T10:04:51;8.70;99.90
44170;DHT22;29836;52.286;9.576;2023-01-05T10:13:04;8.70;99.90
44170;DHT22;29836;52.286;9.576;2023-01-05T10:15:41;8.70;99.90
44170;DHT22;29836;52.286;9.576;2023-01-05T10:18:16;8.80;99.90
44170;DHT22;29836;52.286;9.576;2023-01-05T10:21:14;8.90;99.90
44170;DHT22;29836;52.286;9.576;2023-01-05T10:26:47;9.30;99.90
44170;DHT22;29836;52.286;9.576;2023-01-05T10:29:22;9.30;99.90
44170;DHT22;29836;52.286;9.576;2023-01-05T10:32:23;9.30;99.90
44170;DHT22;29836;52.286;9.576;2023-01-05T10:35:05;9.30;99.90
44170;DHT22;29836;52.286;9.576;2023-01-05T10:40:32;9.30;99.90
44170;DHT22;29836;52.286;9.576;2023-01-05T10:46:03;9.30;99.90
44170;DHT22;29836;52.286;9.576;2023-01-05T10:48:33;9.40;99.90
44170;DHT22;29836;52.286;9.576;2023-01-05T10:51:00;9.40;99.90
44170;DHT22;29836;52.286;9.576;2023-01-05T10:53:28;9.40;99.90
44170;DHT22;29836;52.286;9.576;2023-01-05T11:01:13;9.40;99.90
44170;DHT22;29836;52.286;9.576;2023-01-05T11:03:44;9.50;99.90
44170;DHT22;29836;52.286;9.576;2023-01-05T11:06:28;9.50;99.90
44170;DHT22;29836;52.286;9.576;2023-01-05T11:09:03;9.60;99.90
44170;DHT22;29836;52.286;9.576;2023-01-05T11:11:29;9.60;99.90
44170;DHT22;29836;52.286;9.576;2023-01-05T11:13:56;9.50;99.90
44170;DHT22;29836;52.286;9.576;2023-01-05T11:16:27;9.50;99.90
44170;DHT22;29836;52.286;9.576;2023-01-05T11:19:05;9.60;99.90
44170;DHT22;29836;52.286;9.576;2023-01-05T11:24:01;9.60;99.90
44170;DHT22;29836;52.286;9.576;2023-01-05T11:26:35;9.60;99.90
44170;DHT22;29836;52.286;9.576;2023-01-05T11:31:45;9.60;99.90
44170;DHT22;29836;52.286;9.576;2023-01-05T11:37:23;9.90;99.90
44170;DHT22;29836;52.286;9.576;2023-01-05T11:39:54;10.20;99.90
44170;DHT22;29836;52.286;9.576;2023-01-05T11:47:28;10.50;99.90
44170;DHT22;29836;52.286;9.576;2023-01-05T11:52:48;10.50;99.90
44170;DHT22;29836;52.286;9.576;2023-01-05T12:01:00;10.60;99.90
44170;DHT22;29836;52.286;9.576;2023-01-05T12:03:55;10.70;99.90
44170;DHT22;29836;52.286;9.576;2023-01-05T12:06:51;10.60;99.90
44170;DHT22;29836;52.286;9.576;2023-01-05T12:09:37;10.60;99.90
44170;DHT22;29836;52.286;9.576;2023-01-05T12:12:26;10.60;99.90
44170;DHT22;29836;52.286;9.576;2023-01-05T12:21:01;10.40;99.90
44170;DHT22;29836;52.286;9.576;2023-01-05T12:23:40;10.50;99.90
44170;DHT22;29836;52.286;9.576;2023-01-05T12:26:27;10.70;99.90
44170;DHT22;29836;52.286;9.576;2023-01-05T12:32:05;10.90;99.90
44170;DHT22;29836;52.286;9.576;2023-01-05T12:35:15;10.90;99.90
44170;DHT22;29836;52.286;9.576;2023-01-05T12:40:33;11.00;99.90
44170;DHT22;29836;52.286;9.576;2023-01-05T12:43:07;10.90;99.90
44170;DHT22;29836;52.286;9.576;2023-01-05T12:45:55;10.70;99.90
44170;DHT22;29836;52.286;9.576;2023-01-05T12:48:36;10.50;99.90
44170;DHT22;29836;52.286;9.576;2023-01-05T12:51:12;10.50;99.90
44170;DHT22;29836;52.286;9.576;2023-01-05T12:53:53;10.30;99.90
44170;DHT22;29836;52.286;9.576;2023-01-05T12:56:29;10.20;99.90
44170;DHT22;29836;52.286;9.576;2023-01-05T12:59:23;10.20;99.90
44170;DHT22;29836;52.286;9.576;2023-01-05T13:04:43;10.20;99.90
44170;DHT22;29836;52.286;9.576;2023-01-05T13:07:15;10.00;99.90
44170;DHT22;29836;52.286;9.576;2023-01-05T13:09:42;10.10;99.90
44170;DHT22;29836;52.286;9.576;2023-01-05T13:12:10;10.00;99.90
44170;DHT22;29836;52.286;9.576;2023-01-05T13:14:47;9.80;99.90
44170;DHT22;29836;52.286;9.576;2023-01-05T13:17:31;9.70;99.90
44170;DHT22;29836;52.286;9.576;2023-01-05T13:20:22;9.60;99.90
44170;DHT22;29836;52.286;9.576;2023-01-05T13:22:51;9.50;99.90
44170;DHT22;29836;52.286;9.576;2023-01-05T13:25:22;9.50;99.90
44170;DHT22;29836;52.286;9.576;2023-01-05T13:27:49;9.50;99.90
44170;DHT22;29836;52.286;9.576;2023-01-05T13:30:26;9.60;99.90
44170;DHT22;29836;52.286;9.576;2023-01-05T13:33:17;9.70;99.90
44170;DHT22;29836;52.286;9.576;2023-01-05T13:39:09;9.80;99.90
44170;DHT22;29836;52.286;9.576;2023-01-05T13:44:38;9.90;99.90
44170;DHT22;29836;52.286;9.576;2023-01-05T13:53:03;9.60;99.90
44170;DHT22;29836;52.286;9.576;2023-01-05T13:55:31;9.60;99.90
44170;DHT22;29836;52.286;9.576;2023-01-05T13:57:59;9.60;99.90
44170;DHT22;29836;52.286;9.576;2023-01-05T14:00:36;9.60;99.90
44170;DHT22;29836;52.286;9.576;2023-01-05T14:03:19;9.60;99.90
44170;DHT22;29836;52.286;9.576;2023-01-05T14:05:52;9.60;99.90
44170;DHT22;29836;52.286;9.576;2023-01-05T14:08:32;9.60;99.90
44170;DHT22;29836;52.286;9.576;2023-01-05T14:19:25;9.40;99.90
44170;DHT22;29836;52.286;9.576;2023-01-05T14:24:39;9.40;99.90
44170;DHT22;29836;52.286;9.576;2023-01-05T14:32:36;9.30;99.90
44170;DHT22;29836;52.286;9.576;2023-01-05T14:35:22;9.30;99.90
44170;DHT22;29836;52.286;9.576;2023-01-05T14:37:59;9.20;99.90
44170;DHT22;29836;52.286;9.576;2023-01-05T14:42:59;9.20;99.90
44170;DHT22;29836;52.286;9.576;2023-01-05T14:45:34;9.20;99.90
44170;DHT22;29836;52.286;9.576;2023-01-05T14:48:04;9.20;99.90
44170;DHT22;29836;52.286;9.576;2023-01-05T14:50:38;9.20;99.90
44170;DHT22;29836;52.286;9.576;2023-01-05T14:53:12;9.10;99.90
44170;DHT22;29836;52.286;9.576;2023-01-05T15:04:12;8.40;99.90
44170;DHT22;29836;52.286;9.576;2023-01-05T15:06:47;8.30;99.90
44170;DHT22;29836;52.286;9.576;2023-01-05T15:09:38;8.10;99.90
44170;DHT22;29836;52.286;9.576;2023-01-05T15:12:15;8.10;99.90
44170;DHT22;29836;52.286;9.576;2023-01-05T15:14:53;8.00;99.90
44170;DHT22;29836;52.286;9.576;2023-01-05T15:21:06;7.80;99.90
44170;DHT22;29836;52.286;9.576;2023-01-05T15:27:11;7.80;99.90
44170;DHT22;29836;52.286;9.576;2023-01-05T15:32:32;7.80;99.90
44170;DHT22;29836;52.286;9.576;2023-01-05T15:35:21;7.70;99.90
44170;DHT22;29836;52.286;9.576;2023-01-05T15:37:52;7.70;99.90
44170;DHT22;29836;52.286;9.576;2023-01-05T15:42:46;7.70;99.90
44170;DHT22;29836;52.286;9.576;2023-01-05T15:45:24;7.70;99.90
44170;DHT22;29836;52.286;9.576;2023-01-05T15:47:51;7.70;99.90
44170;DHT22;29836;52.286;9.576;2023-01-05T15:50:25;7.70;99.90
44170;DHT22;29836;52.286;9.576;2023-01-05T15:52:55;7.60;99.90
44170;DHT22;29836;52.286;9.576;2023-01-05T15:55:22;7.70;99.90
44170;DHT22;29836;52.286;9.576;2023-01-05T16:00:21;7.70;99.90
44170;DHT22;29836;52.286;9.576;2023-01-05T16:02:47;7.70;99.90
44170;DHT22;29836;52.286;9.576;2023-01-05T16:05:14;7.70;99.90
44170;DHT22;29836;52.286;9.576;2023-01-05T16:07:54;7.60;99.90
44170;DHT22;29836;52.286;9.576;2023-01-05T16:13:01;7.60;99.90
44170;DHT22;29836;52.286;9.576;2023-01-05T16:15:31;7.60;99.90
44170;DHT22;29836;52.286;9.576;2023-01-05T16:17:57;7.60;99.90
44170;DHT22;29836;52.286;9.576;2023-01-05T16:20:24;7.50;99.90
44170;DHT22;29836;52.286;9.576;2023-01-05T16:25:27;7.60;99.90
44170;DHT22;29836;52.286;9.576;2023-01-05T16:28:01;7.60;99.90
44170;DHT22;29836;52.286;9.576;2023-01-05T16:30:39;7.60;99.90
44170;DHT22;29836;52.286;9.576;2023-01-05T16:35:50;7.60;99.90
44170;DHT22;29836;52.286;9.576;2023-01-05T16:38:27;7.70;99.90
44170;DHT22;29836;52.286;9.576;2023-01-05T16:41:04;7.70;99.90
44170;DHT22;29836;52.286;9.576;2023-01-05T16:43:43;7.80;99.90
44170;DHT22;29836;52.286;9.576;2023-01-05T16:51:20;7.80;99.90
44170;DHT22;29836;52.286;9.576;2023-01-05T16:53:51;7.90;99.90
44170;DHT22;29836;52.286;9.576;2023-01-05T16:58:45;8.00;99.90
44170;DHT22;29836;52.286;9.576;2023-01-05T17:03:40;8.00;99.90
44170;DHT22;29836;52.286;9.576;2023-01-05T17:08:43;8.00;99.90
44170;DHT22;29836;52.286;9.576;2023-01-05T17:11:09;7.90;99.90
44170;DHT22;29836;52.286;9.576;2023-01-05T17:13:41;7.90;99.90
44170;DHT22;29836;52.286;9.576;2023-01-05T17:16:10;8.00;99.90
44170;DHT22;29836;52.286;9.576;2023-01-05T17:18:36;7.90;99.90
44170;DHT22;29836;52.286;9.576;2023-01-05T17:21:03;7.90;99.90
44170;DHT22;29836;52.286;9.576;2023-01-05T17:23:32;7.90;99.90
44170;DHT22;29836;52.286;9.576;2023-01-05T17:26:03;8.00;99.90
44170;DHT22;29836;52.286;9.576;2023-01-05T17:28:30;7.90;99.90
44170;DHT22;29836;52.286;9.576;2023-01-05T17:30:55;7.90;99.90
44170;DHT22;29836;52.286;9.576;2023-01-05T17:33:21;7.90;99.90
44170;DHT22;29836;52.286;9.576;2023-01-05T17:35:47;7.80;99.90
44170;DHT22;29836;52.286;9.576;2023-01-05T17:38:13;7.80;99.90
44170;DHT22;29836;52.286;9.576;2023-01-05T17:40:40;7.80;99.90
44170;DHT22;29836;52.286;9.576;2023-01-05T17:43:06;7.80;99.90
44170;DHT22;29836;52.286;9.576;2023-01-05T17:45:32;7.80;99.90
44170;DHT22;29836;52.286;9.576;2023-01-05T17:47:58;7.80;99.90
44170;DHT22;29836;52.286;9.576;2023-01-05T17:50:26;7.70;99.90
44170;DHT22;29836;52.286;9.576;2023-01-05T17:52:54;7.80;99.90
44170;DHT22;29836;52.286;9.576;2023-01-05T17:55:20;7.80;99.90
44170;DHT22;29836;52.286;9.576;2023-01-05T17:57:46;7.70;99.90
44170;DHT22;29836;52.286;9.576;2023-01-05T18:00:14;7.80;99.90
44170;DHT22;29836;52.286;9.576;2023-01-05T18:02:40;7.80;99.90
44170;DHT22;29836;52.286;9.576;2023-01-05T18:05:07;7.70;99.90
44170;DHT22;29836;52.286;9.576;2023-01-05T18:07:33;7.70;99.90
44170;DHT22;29836;52.286;9.576;2023-01-05T18:09:58;7.70;99.90
44170;DHT22;29836;52.286;9.576;2023-01-05T18:12:25;7.80;99.90
44170;DHT22;29836;52.286;9.576;2023-01-05T18:14:51;7.80;99.90
44170;DHT22;29836;52.286;9.576;2023-01-05T18:17:17;7.80;99.90
44170;DHT22;29836;52.286;9.576;2023-01-05T18:19:43;7.80;99.90
44170;DHT22;29836;52.286;9.576;2023-01-05T18:22:09;7.80;99.90
44170;DHT22;29836;52.286;9.576;2023-01-05T18:24:37;7.80;99.90
44170;DHT22;29836;52.286;9.576;2023-01-05T18:27:03;7.90;99.90
44170;DHT22;29836;52.286;9.576;2023-01-05T18:29:35;7.90;99.90
44170;DHT22;29836;52.286;9.576;2023-01-05T18:32:01;8.00;99.90
44170;DHT22;29836;52.286;9.576;2023-01-05T18:34:27;8.00;99.90
44170;DHT22;29836;52.286;9.576;2023-01-05T18:36:54;8.00;99.90
44170;DHT22;29836;52.286;9.576;2023-01-05T18:39:20;8.00;99.90